Time;durP1;ratioP1;P1;durP2;ratioP2;P2;SDS_P1;SDS_P2;PMS_P1;PMS_P2;Temp;Humidity;BMP_temperature;BMP_pressure;BME280_temperature;BME280_humidity;BME280_pressure;Samples;Min_cycle;Max_cycle;Signal;HPM_P1;HPM_P2
2024/03/14 00:01:50;;;;;;;5.85;4.20;;;12.60;99.90;;;;;;10270356;28;20220;-65
2024/03/14 00:06:54;;;;;;;5.60;4.45;;;12.60;99.90;;;;;;10273712;28;20229;-65
2024/03/14 00:11:58;;;;;;;5.85;4.78;;;12.60;99.90;;;;;;10286216;28;20205;-65
2024/03/14 00:17:02;;;;;;;6.55;4.97;;;12.60;99.90;;;;;;10268970;28;20229;-64
2024/03/14 00:22:06;;;;;;;7.45;5.13;;;12.60;99.90;;;;;;10277590;28;20321;-65
2024/03/14 00:27:10;;;;;;;7.10;4.97;;;12.60;99.90;;;;;;10287335;28;20225;-66
2024/03/14 00:32:14;;;;;;;5.38;4.80;;;12.60;99.90;;;;;;10281411;28;20201;-65
2024/03/14 00:37:18;;;;;;;8.10;5.20;;;12.60;99.90;;;;;;10278302;28;20282;-65
2024/03/14 00:42:21;;;;;;;6.68;5.10;;;12.60;99.90;;;;;;10277798;28;20225;-65
2024/03/14 00:47:26;;;;;;;8.32;5.40;;;12.60;99.90;;;;;;10284255;28;21412;-65
2024/03/14 00:52:30;;;;;;;7.82;6.68;;;12.60;99.90;;;;;;10289714;28;20271;-65
2024/03/14 00:57:35;;;;;;;5.80;5.03;;;12.60;99.90;;;;;;10292260;28;20256;-65
2024/03/14 01:02:38;;;;;;;6.93;6.20;;;12.60;99.90;;;;;;10296839;28;20221;-65
2024/03/14 01:07:43;;;;;;;7.30;5.90;;;12.60;99.90;;;;;;10294687;28;20229;-63
2024/03/14 01:12:47;;;;;;;7.80;5.82;;;12.60;99.90;;;;;;10295698;28;20200;-64
2024/03/14 01:17:50;;;;;;;7.93;6.78;;;12.60;99.90;;;;;;10275984;28;20303;-64
2024/03/14 01:22:54;;;;;;;8.30;6.20;;;12.60;99.90;;;;;;10278283;28;21294;-64
2024/03/14 01:27:58;;;;;;;8.98;5.63;;;12.60;99.90;;;;;;10278930;28;20229;-65
2024/03/14 01:33:02;;;;;;;8.48;6.45;;;12.60;99.90;;;;;;10282439;28;21505;-65
2024/03/14 01:38:06;;;;;;;7.40;6.32;;;12.60;99.90;;;;;;10255184;28;20267;-65
2024/03/14 01:43:11;;;;;;;8.60;6.47;;;12.50;99.90;;;;;;10253341;23;20308;-58
2024/03/14 01:48:15;;;;;;;7.00;6.35;;;12.60;99.90;;;;;;10213300;28;20210;-60
2024/03/14 01:53:20;;;;;;;9.23;6.28;;;12.50;99.90;;;;;;10218313;28;20304;-59
2024/03/14 01:58:26;;;;;;;7.78;6.72;;;12.50;99.90;;;;;;10231068;28;20218;-61
2024/03/14 02:03:30;;;;;;;8.98;6.97;;;12.50;99.90;;;;;;10228891;28;21896;-60
2024/03/14 02:08:34;;;;;;;8.07;6.35;;;12.50;99.90;;;;;;10230726;28;20288;-59
2024/03/14 02:13:38;;;;;;;8.13;6.93;;;12.50;99.90;;;;;;10230402;28;20222;-59
2024/03/14 02:18:42;;;;;;;6.60;6.00;;;12.50;99.90;;;;;;10222089;28;20244;-60
2024/03/14 02:23:46;;;;;;;10.32;6.80;;;12.50;99.90;;;;;;10214091;28;22057;-60
2024/03/14 02:28:50;;;;;;;8.38;6.80;;;12.40;99.90;;;;;;10228734;28;20273;-61
2024/03/14 02:33:53;;;;;;;8.90;7.22;;;12.40;99.90;;;;;;10228975;28;20233;-59
2024/03/14 02:38:57;;;;;;;8.05;7.25;;;12.40;99.90;;;;;;10230982;28;20217;-59
2024/03/14 02:44:02;;;;;;;7.10;6.25;;;12.40;99.90;;;;;;10222397;28;20241;-59
2024/03/14 02:49:05;;;;;;;7.35;6.63;;;12.40;99.90;;;;;;10228248;28;20281;-60
2024/03/14 02:54:09;;;;;;;8.15;6.15;;;12.30;99.90;;;;;;10226559;28;21657;-60
2024/03/14 02:59:13;;;;;;;7.43;6.50;;;12.30;99.90;;;;;;10228945;28;20264;-59
2024/03/14 03:04:17;;;;;;;7.13;5.57;;;12.30;99.90;;;;;;10226778;28;20241;-59
2024/03/14 03:09:22;;;;;;;6.47;5.85;;;12.20;99.90;;;;;;10220892;28;20213;-60
2024/03/14 03:14:26;;;;;;;6.50;5.38;;;12.20;99.90;;;;;;10210117;28;20217;-60
2024/03/14 03:19:30;;;;;;;6.90;5.40;;;12.20;99.90;;;;;;10219346;28;20214;-61
2024/03/14 03:24:34;;;;;;;7.38;5.18;;;12.10;99.90;;;;;;10226407;28;20748;-61
2024/03/14 03:29:38;;;;;;;5.45;4.88;;;12.10;99.90;;;;;;10197383;28;20740;-61
2024/03/14 03:34:41;;;;;;;6.80;5.03;;;12.10;99.90;;;;;;10227325;28;20296;-59
2024/03/14 03:39:47;;;;;;;7.05;5.00;;;12.00;99.90;;;;;;10211702;28;20294;-60
2024/03/14 03:44:51;;;;;;;7.43;4.68;;;12.00;99.90;;;;;;10228331;28;20581;-66
2024/03/14 03:49:55;;;;;;;7.80;5.30;;;11.90;99.90;;;;;;10218210;28;20276;-66
2024/03/14 03:54:59;;;;;;;5.88;5.22;;;11.90;99.90;;;;;;10219174;28;21555;-65
2024/03/14 04:00:30;;;;;;;6.80;4.82;;;11.90;99.90;;;;;;10227238;28;20265;-65
2024/03/14 04:05:27;;;;;;;7.20;5.18;;;11.80;99.90;;;;;;10221648;28;20253;-65
2024/03/14 04:10:31;;;;;;;8.88;5.00;;;11.80;99.90;;;;;;10214321;28;20247;-65
2024/03/14 04:15:36;;;;;;;5.88;4.95;;;11.80;99.90;;;;;;10225584;28;20206;-64
2024/03/14 04:20:40;;;;;;;6.43;4.78;;;11.70;99.90;;;;;;10224219;28;20284;-67
2024/03/14 04:25:43;;;;;;;6.20;5.00;;;11.60;99.90;;;;;;10227953;28;21329;-67
2024/03/14 04:30:47;;;;;;;6.75;5.28;;;11.60;99.90;;;;;;10223359;28;20316;-64
2024/03/14 04:35:52;;;;;;;5.30;4.75;;;11.60;99.90;;;;;;10224163;28;20228;-67
2024/03/14 04:40:59;;;;;;;5.90;4.78;;;11.60;99.90;;;;;;10218450;28;20288;-66
2024/03/14 04:46:02;;;;;;;5.82;4.53;;;11.60;99.90;;;;;;10233394;28;20390;-66
2024/03/14 04:51:06;;;;;;;6.68;5.05;;;11.60;99.90;;;;;;10227671;28;20233;-68
2024/03/14 04:56:13;;;;;;;8.05;5.25;;;11.60;99.90;;;;;;10226009;28;20260;-66
2024/03/14 05:01:17;;;;;;;6.50;5.00;;;11.60;99.90;;;;;;10228337;28;20241;-65
2024/03/14 05:06:21;;;;;;;7.50;5.00;;;11.50;99.90;;;;;;10230197;28;21866;-66
2024/03/14 05:11:25;;;;;;;5.80;5.10;;;11.50;99.90;;;;;;10231508;28;20218;-66
2024/03/14 05:16:28;;;;;;;6.75;5.35;;;11.50;99.90;;;;;;10221939;28;20206;-68
2024/03/14 05:21:32;;;;;;;8.15;5.30;;;11.40;99.90;;;;;;10223274;28;20303;-67
2024/03/14 05:26:36;;;;;;;9.05;5.70;;;11.40;99.90;;;;;;10224255;28;20222;-67
2024/03/14 05:31:40;;;;;;;9.20;5.28;;;11.40;99.90;;;;;;10221550;28;20229;-67
2024/03/14 05:36:44;;;;;;;8.82;6.13;;;11.30;99.90;;;;;;10194322;28;20226;-60
2024/03/14 05:41:48;;;;;;;9.75;5.97;;;11.30;99.90;;;;;;10247541;28;20237;-60
2024/03/14 05:46:53;;;;;;;8.02;6.70;;;11.30;99.90;;;;;;10231398;28;20229;-60
2024/03/14 05:51:57;;;;;;;9.10;6.60;;;11.20;99.90;;;;;;10231580;28;20230;-60
2024/03/14 05:57:01;;;;;;;11.00;7.90;;;11.20;99.90;;;;;;10246923;28;20339;-61
2024/03/14 06:02:06;;;;;;;13.32;7.78;;;11.10;99.90;;;;;;10246006;28;20225;-61
2024/03/14 06:07:11;;;;;;;14.30;8.93;;;11.10;99.90;;;;;;10238968;28;21949;-60
2024/03/14 06:12:15;;;;;;;10.30;7.30;;;11.10;99.90;;;;;;10244862;28;20237;-60
2024/03/14 06:17:19;;;;;;;10.85;7.80;;;11.10;99.90;;;;;;10244690;28;20210;-61
2024/03/14 06:22:23;;;;;;;11.50;7.55;;;11.10;99.90;;;;;;10236535;28;20238;-61
2024/03/14 06:27:26;;;;;;;9.23;7.50;;;11.10;99.90;;;;;;10238097;28;20225;-59
2024/03/14 06:32:30;;;;;;;10.38;6.95;;;11.10;99.90;;;;;;10230463;28;20245;-60
2024/03/14 06:37:34;;;;;;;7.97;6.75;;;11.10;99.90;;;;;;10246851;28;20206;-61
2024/03/14 06:42:38;;;;;;;9.93;7.43;;;11.20;99.90;;;;;;10243806;28;20297;-62
2024/03/14 06:47:43;;;;;;;8.63;6.90;;;11.20;99.90;;;;;;10185428;28;20987;-61
2024/03/14 06:52:48;;;;;;;12.32;7.72;;;11.20;99.90;;;;;;10234983;28;20305;-60
2024/03/14 06:57:53;;;;;;;8.70;7.70;;;11.20;99.90;;;;;;10236797;28;20261;-60
2024/03/14 07:02:56;;;;;;;7.63;6.88;;;11.30;99.90;;;;;;10215123;28;20230;-60
2024/03/14 07:08:03;;;;;;;11.40;7.30;;;11.30;99.90;;;;;;10230828;28;20233;-62
2024/03/14 07:13:07;;;;;;;12.00;7.78;;;11.40;99.90;;;;;;10227818;28;20229;-62
2024/03/14 07:18:11;;;;;;;10.63;6.93;;;11.40;99.90;;;;;;10241062;28;20214;-61
2024/03/14 07:23:15;;;;;;;9.00;6.47;;;11.50;99.90;;;;;;10236563;28;20774;-62
2024/03/14 07:28:19;;;;;;;7.85;6.22;;;11.50;99.90;;;;;;10237101;28;20268;-61
2024/03/14 07:33:23;;;;;;;7.15;6.20;;;11.60;99.90;;;;;;10243270;28;20739;-61
2024/03/14 07:38:28;;;;;;;9.25;6.13;;;11.60;99.90;;;;;;10241135;28;20217;-60
2024/03/14 07:43:33;;;;;;;7.43;6.32;;;11.70;99.90;;;;;;10226561;28;20241;-61
2024/03/14 07:48:38;;;;;;;7.80;6.22;;;11.80;99.90;;;;;;10242935;28;21063;-62
2024/03/14 07:53:42;;;;;;;8.10;5.55;;;11.90;99.90;;;;;;10234653;28;20297;-60
2024/03/14 07:58:46;;;;;;;6.28;5.57;;;12.00;99.90;;;;;;10241193;28;20206;-62
2024/03/14 08:03:50;;;;;;;7.75;5.30;;;12.20;99.90;;;;;;10246929;28;20234;-63
2024/03/14 08:08:53;;;;;;;6.03;5.15;;;12.30;99.90;;;;;;10245257;28;20235;-60
2024/03/14 08:14:00;;;;;;;5.32;4.70;;;12.40;99.90;;;;;;10215776;28;20222;-67
2024/03/14 08:19:09;;;;;;;5.63;4.63;;;12.50;99.90;;;;;;10228587;28;20214;-67
2024/03/14 08:24:15;;;;;;;5.10;4.63;;;12.60;99.90;;;;;;10227503;28;20238;-67
2024/03/14 08:29:20;;;;;;;4.88;4.40;;;12.70;99.90;;;;;;10219174;28;20214;-67
2024/03/14 08:34:27;;;;;;;4.72;4.15;;;12.90;99.90;;;;;;10223405;28;20237;-67
2024/03/14 08:39:31;;;;;;;5.10;4.53;;;13.00;99.90;;;;;;10228654;28;20209;-68
2024/03/14 08:44:36;;;;;;;5.38;4.25;;;13.20;99.90;;;;;;10228798;28;20627;-66
2024/03/14 08:49:43;;;;;;;4.97;3.95;;;13.30;99.20;;;;;;10225060;28;20774;-66
2024/03/14 08:54:46;;;;;;;7.43;4.35;;;13.40;99.50;;;;;;10224615;28;20285;-66
2024/03/14 08:59:50;;;;;;;5.15;4.10;;;13.50;98.90;;;;;;10227979;28;21870;-66
2024/03/14 09:04:54;;;;;;;5.63;4.18;;;13.60;99.50;;;;;;10228680;28;20252;-70
2024/03/14 09:09:58;;;;;;;4.80;3.33;;;13.70;98.90;;;;;;10220866;28;20288;-67
2024/03/14 09:15:04;;;;;;;4.55;3.42;;;13.70;99.30;;;;;;10231216;28;21508;-66
2024/03/14 09:20:14;;;;;;;4.45;3.97;;;13.80;99.30;;;;;;10235816;28;20237;-67
2024/03/14 09:25:18;;;;;;;4.10;3.70;;;14.00;99.30;;;;;;10219704;28;20287;-67
2024/03/14 09:30:21;;;;;;;3.50;3.20;;;14.10;99.20;;;;;;10217318;28;20251;-66
2024/03/14 09:35:26;;;;;;;4.10;3.70;;;14.20;99.40;;;;;;10219426;28;20211;-67
2024/03/14 09:40:32;;;;;;;4.10;3.70;;;14.20;98.80;;;;;;10229936;28;20230;-67
2024/03/14 09:45:35;;;;;;;3.95;3.58;;;14.20;98.60;;;;;;10234884;28;20829;-65
2024/03/14 09:50:41;;;;;;;5.22;4.72;;;14.20;98.10;;;;;;10219999;28;20358;-65
2024/03/14 09:55:46;;;;;;;4.07;3.63;;;14.30;97.90;;;;;;10214051;28;20245;-67
2024/03/14 10:00:50;;;;;;;5.82;4.00;;;14.40;98.40;;;;;;10229499;28;20226;-67
2024/03/14 10:05:54;;;;;;;5.32;4.55;;;14.50;98.50;;;;;;10232411;28;20226;-67
2024/03/14 10:10:58;;;;;;;4.65;4.25;;;14.50;98.00;;;;;;10226722;28;20841;-68
2024/03/14 10:16:01;;;;;;;3.88;3.33;;;14.60;97.60;;;;;;10233436;28;20206;-68
2024/03/14 10:21:07;;;;;;;5.45;3.72;;;14.70;98.00;;;;;;10231724;28;20248;-67
2024/03/14 10:26:10;;;;;;;5.00;4.43;;;14.90;97.90;;;;;;10226243;28;20660;-67
2024/03/14 10:31:14;;;;;;;4.25;3.85;;;15.00;97.80;;;;;;10221425;28;20230;-66
2024/03/14 10:36:18;;;;;;;4.32;3.90;;;15.10;96.80;;;;;;10215044;28;20202;-66
2024/03/14 10:41:22;;;;;;;4.20;3.80;;;15.10;97.20;;;;;;10228906;28;20245;-66
2024/03/14 10:46:25;;;;;;;3.63;3.30;;;15.20;97.10;;;;;;10231771;28;20280;-66
2024/03/14 10:51:29;;;;;;;4.65;3.60;;;15.20;97.20;;;;;;10231249;28;21340;-68
2024/03/14 10:56:33;;;;;;;3.33;3.03;;;15.20;96.60;;;;;;10232007;28;20202;-67
2024/03/14 11:01:39;;;;;;;3.67;3.38;;;15.30;96.70;;;;;;10221089;28;20230;-66
2024/03/14 11:06:43;;;;;;;6.43;2.42;;;15.50;96.30;;;;;;10226934;28;20229;-66
2024/03/14 11:11:48;;;;;;;3.08;2.70;;;15.60;96.50;;;;;;10221768;28;20222;-66
2024/03/14 11:16:53;;;;;;;2.47;2.10;;;15.60;96.10;;;;;;10229501;28;21408;-65
2024/03/14 11:21:57;;;;;;;3.10;2.05;;;15.60;95.80;;;;;;10222411;28;20320;-69
2024/03/14 11:27:04;;;;;;;2.58;1.98;;;15.70;96.00;;;;;;10228001;28;20234;-66
2024/03/14 11:32:11;;;;;;;2.65;2.17;;;15.80;96.00;;;;;;10213936;28;20310;-69
2024/03/14 11:37:15;;;;;;;4.25;2.55;;;15.90;95.80;;;;;;10226214;28;20215;-65
2024/03/14 11:42:21;;;;;;;2.20;2.00;;;16.00;95.70;;;;;;10216514;28;20233;-66
2024/03/14 11:47:42;;;;;;;2.95;2.28;;;16.10;95.10;;;;;;10224889;28;20264;-67
2024/03/14 11:52:46;;;;;;;2.58;2.08;;;16.20;95.50;;;;;;10242131;28;20229;-66
2024/03/14 11:57:51;;;;;;;2.42;2.17;;;16.40;95.00;;;;;;10231297;28;20863;-66
2024/03/14 12:02:54;;;;;;;2.45;2.20;;;16.50;94.50;;;;;;10228535;28;20258;-67
2024/03/14 12:08:01;;;;;;;1.75;1.63;;;16.80;94.60;;;;;;10204919;28;20562;-67
2024/03/14 12:13:05;;;;;;;2.92;2.10;;;17.20;94.90;;;;;;10227748;28;20387;-66
2024/03/14 12:18:12;;;;;;;3.00;2.22;;;17.50;94.30;;;;;;10222405;28;20260;-67
2024/03/14 12:23:16;;;;;;;2.92;2.00;;;17.80;93.70;;;;;;10230466;28;21469;-68
2024/03/14 12:28:20;;;;;;;2.50;2.25;;;18.00;92.90;;;;;;10220893;28;20233;-68
2024/03/14 12:33:27;;;;;;;2.53;2.10;;;18.20;92.70;;;;;;10216490;28;20280;-66
2024/03/14 12:38:31;;;;;;;2.50;1.98;;;18.50;92.90;;;;;;10226106;28;20209;-66
2024/03/14 12:43:35;;;;;;;3.10;2.00;;;18.70;92.40;;;;;;10228037;28;20805;-66
2024/03/14 12:48:39;;;;;;;2.65;1.70;;;19.00;91.60;;;;;;10180136;28;20775;-68
2024/03/14 12:53:42;;;;;;;3.72;2.13;;;19.30;91.60;;;;;;10226816;28;20226;-66
2024/03/14 12:58:50;;;;;;;2.42;1.67;;;19.50;91.30;;;;;;10214793;28;20284;-68
2024/03/14 13:03:58;;;;;;;2.20;1.52;;;19.80;90.50;;;;;;10205211;28;20709;-67
2024/03/14 13:09:14;;;;;;;1.75;1.30;;;19.90;90.90;;;;;;10220672;28;20229;-66
2024/03/14 13:14:25;;;;;;;2.38;1.58;;;20.20;90.60;;;;;;10220622;28;20267;-66
2024/03/14 13:19:29;;;;;;;2.78;1.30;;;20.50;90.40;;;;;;10227344;28;20209;-66
2024/03/14 13:24:32;;;;;;;2.25;1.40;;;20.80;90.10;;;;;;10224294;28;20582;-66
2024/03/14 13:29:37;;;;;;;3.15;1.73;;;21.00;90.00;;;;;;10210393;28;20225;-66
2024/03/14 13:34:43;;;;;;;2.45;1.75;;;21.20;88.20;;;;;;10203029;28;20226;-66
2024/03/14 13:39:47;;;;;;;2.67;1.50;;;21.40;87.60;;;;;;10224279;28;20230;-66
2024/03/14 13:44:51;;;;;;;1.50;1.20;;;21.50;88.40;;;;;;10223436;28;22328;-66
2024/03/14 13:49:56;;;;;;;2.08;1.35;;;21.10;89.00;;;;;;10224317;28;20202;-66
2024/03/14 13:55:01;;;;;;;3.10;1.63;;;21.10;89.20;;;;;;10219462;28;21774;-66
2024/03/14 14:00:11;;;;;;;2.13;1.90;;;21.40;89.10;;;;;;10221014;28;20250;-66
2024/03/14 14:05:20;;;;;;;3.08;1.10;;;21.40;88.20;;;;;;10222844;28;20288;-66
2024/03/14 14:10:24;;;;;;;2.42;1.20;;;21.40;88.50;;;;;;10227149;28;20643;-66
2024/03/14 14:15:29;;;;;;;1.88;1.63;;;21.50;87.90;;;;;;10232919;28;20555;-65
2024/03/14 14:20:34;;;;;;;2.47;1.35;;;21.60;86.50;;;;;;10236414;28;21754;-65
2024/03/14 14:25:38;;;;;;;1.88;1.50;;;21.50;86.30;;;;;;10233487;28;20530;-65
2024/03/14 14:30:42;;;;;;;2.85;1.67;;;21.40;86.60;;;;;;10225990;28;20280;-65
2024/03/14 14:35:46;;;;;;;2.40;1.77;;;21.50;85.20;;;;;;10223129;28;20730;-64
2024/03/14 14:40:49;;;;;;;1.95;1.77;;;21.40;84.50;;;;;;10222171;28;20288;-65
2024/03/14 14:45:54;;;;;;;2.15;1.63;;;21.40;83.10;;;;;;10236003;28;20272;-64
2024/03/14 14:51:00;;;;;;;2.40;2.13;;;21.30;83.10;;;;;;10231966;28;20230;-65
2024/03/14 14:56:14;;;;;;;2.88;1.80;;;21.00;82.70;;;;;;10228844;28;20707;-64
2024/03/14 15:01:19;;;;;;;5.85;2.00;;;20.70;82.70;;;;;;10223457;28;20304;-64
2024/03/14 15:06:24;;;;;;;2.20;2.00;;;20.40;83.20;;;;;;10215748;28;20213;-65
2024/03/14 15:11:28;;;;;;;4.55;2.15;;;20.30;83.40;;;;;;10235095;28;21045;-64
2024/03/14 15:16:32;;;;;;;3.28;2.00;;;20.10;83.80;;;;;;10215217;28;20238;-64
2024/03/14 15:21:38;;;;;;;2.95;1.98;;;20.00;84.00;;;;;;10277909;28;20699;-66
2024/03/14 15:26:43;;;;;;;3.35;1.70;;;19.80;83.60;;;;;;10293576;28;20226;-64
2024/03/14 15:31:48;;;;;;;2.45;1.67;;;19.60;83.70;;;;;;10310910;28;20862;-66
2024/03/14 15:36:53;;;;;;;4.35;2.00;;;19.50;83.20;;;;;;10289570;28;20304;-62
2024/03/14 15:41:59;;;;;;;3.17;1.50;;;19.40;82.80;;;;;;10298864;28;20795;-65
2024/03/14 15:47:03;;;;;;;2.80;1.70;;;19.40;83.60;;;;;;10297256;28;20229;-64
2024/03/14 15:52:07;;;;;;;4.05;1.65;;;19.30;83.30;;;;;;10294936;28;20261;-64
2024/03/14 15:57:15;;;;;;;2.00;1.20;;;19.10;83.70;;;;;;10300913;28;20272;-66
2024/03/14 16:02:19;;;;;;;1.98;1.42;;;19.10;84.10;;;;;;10278978;28;20364;-64
2024/03/14 16:07:22;;;;;;;3.13;1.30;;;18.90;83.10;;;;;;10291598;28;20230;-68
2024/03/14 16:12:26;;;;;;;3.13;1.60;;;18.70;82.80;;;;;;10290015;28;20261;-63
2024/03/14 16:17:30;;;;;;;1.58;1.48;;;18.60;82.70;;;;;;10301384;28;20999;-65
2024/03/14 16:22:34;;;;;;;4.30;1.67;;;18.50;82.50;;;;;;10294261;28;20260;-64
2024/03/14 16:27:38;;;;;;;1.70;1.33;;;18.40;82.80;;;;;;10307956;28;20715;-68
2024/03/14 16:32:44;;;;;;;2.83;1.33;;;18.30;82.90;;;;;;10293232;28;20257;-64
2024/03/14 16:37:48;;;;;;;4.18;2.00;;;18.30;83.00;;;;;;10256694;28;20243;-64
2024/03/14 16:42:52;;;;;;;2.42;1.42;;;18.20;83.00;;;;;;10270890;28;20324;-66
2024/03/14 16:47:56;;;;;;;1.88;1.40;;;18.20;83.10;;;;;;10294990;28;20314;-65
2024/03/14 16:53:00;;;;;;;3.10;1.55;;;18.00;83.30;;;;;;10277090;28;20643;-66
2024/03/14 16:58:04;;;;;;;4.05;1.60;;;18.00;83.40;;;;;;10296314;28;21409;-66
2024/03/14 17:03:08;;;;;;;8.05;3.30;;;17.90;83.50;;;;;;10282918;28;20284;-64
2024/03/14 17:08:12;;;;;;;3.17;1.90;;;17.80;83.80;;;;;;10285383;28;20320;-64
2024/03/14 17:13:16;;;;;;;4.95;1.60;;;17.60;85.10;;;;;;10303825;28;20257;-66
2024/03/14 17:18:21;;;;;;;3.17;1.73;;;17.50;84.80;;;;;;10295697;28;20229;-63
2024/03/14 17:23:25;;;;;;;3.17;2.10;;;17.40;84.80;;;;;;10282485;28;20634;-66
2024/03/14 17:28:30;;;;;;;4.18;2.08;;;17.20;85.20;;;;;;10275327;28;20774;-66
2024/03/14 17:33:35;;;;;;;5.15;2.65;;;17.10;85.50;;;;;;10269536;28;20233;-71
2024/03/14 17:38:39;;;;;;;5.95;2.70;;;17.00;85.60;;;;;;10258167;28;21533;-67
2024/03/14 17:43:42;;;;;;;3.97;2.10;;;16.80;85.50;;;;;;10239168;28;20241;-65
2024/03/14 17:48:46;;;;;;;6.03;2.72;;;16.70;86.50;;;;;;10233769;28;20206;-70
2024/03/14 17:53:50;;;;;;;4.40;2.30;;;16.60;85.90;;;;;;10265305;28;20985;-70
2024/03/14 17:58:54;;;;;;;5.95;3.00;;;16.40;85.70;;;;;;10251163;28;22933;-70
2024/03/14 18:03:59;;;;;;;3.47;2.50;;;16.30;86.10;;;;;;10246026;28;20234;-71
2024/03/14 18:09:07;;;;;;;3.88;2.90;;;16.20;86.10;;;;;;10254592;28;20201;-70
2024/03/14 18:14:11;;;;;;;5.60;2.83;;;16.10;86.30;;;;;;10248903;28;20234;-70
2024/03/14 18:19:15;;;;;;;5.32;2.72;;;16.00;86.30;;;;;;10241852;28;20311;-67
2024/03/14 18:24:19;;;;;;;3.88;2.85;;;15.90;86.30;;;;;;10234808;28;20229;-73
2024/03/14 18:29:23;;;;;;;6.93;2.80;;;15.80;86.50;;;;;;10237148;28;20397;-68
2024/03/14 18:34:27;;;;;;;8.93;3.10;;;15.80;86.60;;;;;;10230428;28;20324;-63
2024/03/14 18:39:31;;;;;;;7.75;2.97;;;15.70;86.60;;;;;;10199749;28;20799;-62
2024/03/14 18:44:43;;;;;;;6.10;3.03;;;15.60;86.60;;;;;;10233093;28;20335;-61
2024/03/14 18:49:46;;;;;;;6.68;3.30;;;15.50;86.70;;;;;;10220589;28;20206;-61
2024/03/14 18:54:50;;;;;;;6.40;3.28;;;15.40;87.50;;;;;;10225517;28;20229;-61
2024/03/14 18:59:54;;;;;;;5.93;3.30;;;15.30;86.80;;;;;;10222535;28;20233;-62
2024/03/14 19:04:58;;;;;;;6.70;3.60;;;15.30;86.90;;;;;;10224740;28;21457;-62
2024/03/14 19:10:02;;;;;;;5.88;3.28;;;15.20;86.90;;;;;;10234193;28;20205;-62
2024/03/14 19:15:06;;;;;;;7.82;3.80;;;15.10;86.80;;;;;;10224292;28;20229;-61
2024/03/14 19:20:12;;;;;;;5.28;3.45;;;15.10;86.80;;;;;;10234103;28;20308;-62
2024/03/14 19:25:16;;;;;;;4.07;3.17;;;15.10;86.80;;;;;;10226785;28;20237;-61
2024/03/14 19:30:21;;;;;;;5.88;3.45;;;15.10;86.80;;;;;;10224506;28;20193;-63
2024/03/14 19:35:27;;;;;;;6.65;3.00;;;15.00;86.60;;;;;;10219638;28;20214;-63
2024/03/14 19:40:31;;;;;;;3.00;1.70;;;15.00;86.60;;;;;;10238818;28;20222;-61
2024/03/14 19:45:37;;;;;;;3.10;2.00;;;15.00;86.60;;;;;;10217133;28;20288;-62
2024/03/14 19:50:43;;;;;;;4.05;2.50;;;15.00;86.30;;;;;;10230853;28;20225;-61
2024/03/14 19:55:47;;;;;;;3.13;2.50;;;15.00;86.20;;;;;;10213997;28;20245;-62
2024/03/14 20:00:50;;;;;;;2.22;1.75;;;15.00;86.20;;;;;;10232231;28;20317;-62
2024/03/14 20:05:54;;;;;;;3.55;2.95;;;15.00;86.50;;;;;;10228043;28;21223;-60
2024/03/14 20:10:58;;;;;;;3.08;2.42;;;15.00;86.40;;;;;;10213558;28;20304;-61
2024/03/14 20:16:02;;;;;;;3.13;2.13;;;15.00;86.40;;;;;;10229886;28;21450;-64
2024/03/14 20:21:07;;;;;;;4.03;2.03;;;15.00;85.80;;;;;;10223685;28;20237;-65
2024/03/14 20:26:12;;;;;;;3.42;2.30;;;15.00;85.90;;;;;;10229314;28;20218;-67
2024/03/14 20:31:16;;;;;;;3.70;2.20;;;15.00;85.90;;;;;;10196128;28;20222;-65
2024/03/14 20:36:20;;;;;;;3.35;2.15;;;15.00;85.50;;;;;;10214006;28;20213;-65
2024/03/14 20:41:25;;;;;;;4.28;2.03;;;15.00;85.40;;;;;;10212069;28;20241;-62
2024/03/14 20:46:29;;;;;;;2.50;2.08;;;15.00;85.50;;;;;;10256360;23;20777;-63
2024/03/14 20:51:33;;;;;;;4.15;2.38;;;15.00;85.30;;;;;;10243545;28;20229;-60
2024/03/14 20:56:38;;;;;;;2.88;1.95;;;15.00;85.70;;;;;;10235427;28;20213;-62
2024/03/14 21:01:42;;;;;;;4.07;2.78;;;15.00;85.80;;;;;;10235891;28;21120;-62
2024/03/14 21:06:46;;;;;;;2.92;2.20;;;15.00;85.30;;;;;;10236412;28;20561;-60
2024/03/14 21:11:50;;;;;;;1.90;1.75;;;15.00;85.30;;;;;;10229103;28;20872;-61
2024/03/14 21:16:55;;;;;;;3.03;2.47;;;15.00;85.70;;;;;;10244865;28;20209;-62
2024/03/14 21:21:59;;;;;;;4.05;2.30;;;15.00;85.60;;;;;;10242763;28;20236;-61
2024/03/14 21:27:02;;;;;;;3.33;2.45;;;14.90;85.40;;;;;;10243511;28;20205;-62
2024/03/14 21:32:06;;;;;;;3.15;2.72;;;14.90;85.70;;;;;;10259236;28;20221;-62
2024/03/14 21:37:10;;;;;;;2.92;2.20;;;14.90;85.50;;;;;;10242570;28;20214;-62
2024/03/14 21:42:14;;;;;;;2.65;2.30;;;14.90;85.60;;;;;;10245908;28;20255;-62
2024/03/14 21:47:18;;;;;;;3.72;2.58;;;14.90;85.50;;;;;;10242939;28;20212;-62
2024/03/14 21:52:22;;;;;;;3.67;2.60;;;14.90;85.60;;;;;;10248444;28;20226;-62
2024/03/14 21:57:25;;;;;;;3.42;2.53;;;14.90;85.60;;;;;;10241638;28;20323;-61
2024/03/14 22:02:29;;;;;;;3.30;2.95;;;14.90;85.60;;;;;;10241546;28;20228;-62
2024/03/14 22:07:33;;;;;;;2.90;2.58;;;14.90;85.60;;;;;;10240099;28;20217;-61
2024/03/14 22:12:37;;;;;;;4.28;2.70;;;14.90;85.70;;;;;;10244640;28;20303;-62
2024/03/14 22:17:43;;;;;;;3.58;2.92;;;14.90;85.60;;;;;;10240045;28;21759;-62
2024/03/14 22:22:47;;;;;;;2.55;2.33;;;14.90;85.60;;;;;;10238587;28;20229;-62
2024/03/14 22:27:51;;;;;;;3.53;2.53;;;14.80;85.60;;;;;;10239795;28;22015;-62
2024/03/14 22:32:54;;;;;;;3.70;2.70;;;14.80;85.60;;;;;;10243057;28;20260;-62
2024/03/14 22:37:58;;;;;;;3.85;2.83;;;14.80;86.30;;;;;;10256229;28;20210;-62
2024/03/14 22:43:02;;;;;;;3.60;2.88;;;14.80;85.80;;;;;;10240465;28;20982;-64
2024/03/14 22:48:08;;;;;;;4.05;2.90;;;14.80;85.90;;;;;;10217280;28;20209;-62
2024/03/14 22:53:11;;;;;;;4.18;3.17;;;14.80;86.10;;;;;;10242049;28;20245;-62
2024/03/14 22:58:16;;;;;;;4.50;2.80;;;14.80;86.20;;;;;;10235677;28;21529;-62
2024/03/14 23:03:20;;;;;;;3.17;2.85;;;14.80;86.20;;;;;;10238081;28;20923;-62
2024/03/14 23:08:25;;;;;;;4.60;3.15;;;14.80;86.20;;;;;;10239190;28;20209;-62
2024/03/14 23:13:29;;;;;;;3.72;2.65;;;14.80;86.40;;;;;;10242061;28;20365;-63
2024/03/14 23:18:32;;;;;;;4.68;2.95;;;14.80;86.70;;;;;;10241801;28;20280;-62
2024/03/14 23:23:36;;;;;;;2.88;2.55;;;14.80;86.60;;;;;;10248228;28;20229;-62
2024/03/14 23:28:40;;;;;;;2.92;2.72;;;14.80;86.60;;;;;;10212593;28;20264;-64
2024/03/14 23:33:45;;;;;;;3.50;3.00;;;14.80;86.80;;;;;;10240635;28;20225;-65
2024/03/14 23:38:49;;;;;;;4.18;2.85;;;14.80;86.80;;;;;;10237999;28;20254;-64
2024/03/14 23:43:53;;;;;;;3.70;3.03;;;14.80;87.00;;;;;;10239965;28;20241;-64
2024/03/14 23:48:57;;;;;;;3.63;2.70;;;14.80;87.80;;;;;;10237061;28;21506;-64
2024/03/14 23:54:02;;;;;;;3.40;2.50;;;14.80;87.00;;;;;;10235085;28;21768;-64
2024/03/14 23:59:06;;;;;;;3.15;2.80;;;14.70;87.00;;;;;;10238319;28;20210;-63
